Time;durP1;ratioP1;P1;durP2;ratioP2;P2;SDS_P1;SDS_P2;PMS_P1;PMS_P2;Temp;Humidity;BMP_temperature;BMP_pressure;BME280_temperature;BME280_humidity;BME280_pressure;Samples;Min_cycle;Max_cycle;Signal;HPM_P1;HPM_P2
2021/03/02 00:00:36;;;;;;;1999.90;999.90;;;19.10;90.50;;;;;;5055940;28;20184;-41
2021/03/02 00:03:05;;;;;;;1999.90;999.90;;;19.10;90.30;;;;;;5055886;28;20626;-41
2021/03/02 00:05:32;;;;;;;1999.90;999.90;;;19.10;90.50;;;;;;5055937;28;20629;-40
2021/03/02 00:08:00;;;;;;;1999.90;999.90;;;19.10;90.50;;;;;;5055786;28;20204;-41
2021/03/02 00:10:28;;;;;;;1999.90;999.90;;;19.00;90.60;;;;;;5055835;28;20212;-43
2021/03/02 00:12:55;;;;;;;1999.90;999.90;;;18.90;90.90;;;;;;5055868;28;20616;-40
2021/03/02 00:15:22;;;;;;;1999.90;999.90;;;18.90;91.10;;;;;;5055740;28;20658;-40
2021/03/02 00:17:52;;;;;;;1999.90;999.90;;;18.90;91.10;;;;;;5055715;28;20173;-40
2021/03/02 00:20:24;;;;;;;1999.90;999.90;;;18.90;91.10;;;;;;5055547;28;20180;-41
2021/03/02 00:23:07;;;;;;;1999.90;999.90;;;18.90;91.20;;;;;;5055617;28;20177;-40
2021/03/02 00:25:37;;;;;;;1999.90;999.90;;;18.80;91.30;;;;;;5055571;28;20157;-40
2021/03/02 00:28:09;;;;;;;1999.90;999.90;;;18.70;91.60;;;;;;5055443;28;20581;-40
2021/03/02 00:30:38;;;;;;;1999.90;999.90;;;18.60;91.90;;;;;;5055451;28;20295;-40
2021/03/02 00:33:06;;;;;;;1999.90;999.90;;;18.60;92.30;;;;;;5055278;28;20223;-41
2021/03/02 00:35:34;;;;;;;1999.90;999.90;;;18.50;92.50;;;;;;5055405;28;20255;-42
2021/03/02 00:38:01;;;;;;;1999.90;999.90;;;18.40;92.70;;;;;;5055256;28;20565;-42
2021/03/02 00:40:28;;;;;;;1999.90;999.90;;;18.40;93.00;;;;;;5055382;28;20227;-41
2021/03/02 00:42:55;;;;;;;1999.90;999.90;;;18.30;93.20;;;;;;5055190;28;20176;-41
2021/03/02 00:45:22;;;;;;;1999.90;999.90;;;18.30;93.30;;;;;;5055113;28;20187;-40
2021/03/02 00:47:51;;;;;;;1999.90;999.90;;;18.30;93.50;;;;;;5053846;28;20158;-41
2021/03/02 00:50:18;;;;;;;1999.90;999.90;;;18.30;93.70;;;;;;5055025;28;20201;-40
2021/03/02 00:52:45;;;;;;;1999.90;999.90;;;18.30;93.70;;;;;;5055025;28;20671;-43
2021/03/02 00:55:12;;;;;;;1999.90;999.90;;;18.30;93.90;;;;;;5054991;28;20227;-42
2021/03/02 00:57:39;;;;;;;1999.90;999.90;;;18.30;94.10;;;;;;5054811;28;20250;-42
2021/03/02 01:00:08;;;;;;;1999.90;999.90;;;18.30;94.20;;;;;;5055200;28;20315;-42
2021/03/02 01:02:35;;;;;;;1999.90;999.90;;;18.30;94.40;;;;;;5054809;28;20196;-42
2021/03/02 01:05:03;;;;;;;1999.90;999.90;;;18.30;94.50;;;;;;5054899;28;20636;-41
2021/03/02 01:07:29;;;;;;;1999.90;999.90;;;18.20;94.50;;;;;;5054860;28;20307;-41
2021/03/02 01:09:56;;;;;;;1999.90;999.90;;;18.30;94.60;;;;;;5054623;28;20200;-41
2021/03/02 01:12:26;;;;;;;1999.90;999.90;;;18.30;94.80;;;;;;5054630;28;20255;-41
2021/03/02 01:14:55;;;;;;;1999.90;999.90;;;18.30;94.70;;;;;;5054817;28;20177;-42
2021/03/02 01:17:22;;;;;;;1999.90;999.90;;;18.40;94.60;;;;;;5054854;28;20499;-41
2021/03/02 01:19:49;;;;;;;1999.90;999.90;;;18.50;94.50;;;;;;5054560;28;20173;-42
2021/03/02 01:22:16;;;;;;;1999.90;999.90;;;18.60;94.30;;;;;;5054431;28;20180;-42
2021/03/02 01:24:43;;;;;;;1999.90;999.90;;;18.60;94.10;;;;;;5054437;28;20177;-46
2021/03/02 01:27:10;;;;;;;1999.90;999.90;;;18.70;93.90;;;;;;5054316;28;20167;-42
2021/03/02 01:29:36;;;;;;;1999.90;999.90;;;18.70;93.80;;;;;;5054243;28;20284;-42
2021/03/02 01:32:03;;;;;;;1999.90;999.90;;;18.90;93.60;;;;;;5054275;28;20216;-41
2021/03/02 01:34:32;;;;;;;1999.90;999.90;;;18.90;93.50;;;;;;5054323;28;20173;-41
2021/03/02 01:37:00;;;;;;;1999.90;999.90;;;18.90;93.30;;;;;;5054182;28;20169;-40
2021/03/02 01:39:27;;;;;;;1999.90;999.90;;;19.00;93.20;;;;;;5054112;28;20219;-40
2021/03/02 01:41:56;;;;;;;1999.90;999.90;;;19.10;93.00;;;;;;5054052;28;20180;-43
2021/03/02 01:44:25;;;;;;;1999.90;999.90;;;19.10;92.80;;;;;;5054316;28;20576;-43
2021/03/02 01:46:52;;;;;;;1999.90;999.90;;;19.20;92.70;;;;;;5053957;28;20181;-42
2021/03/02 01:49:19;;;;;;;1999.90;999.90;;;19.10;92.70;;;;;;5053902;28;20197;-41
2021/03/02 01:51:47;;;;;;;1999.90;999.90;;;19.20;92.70;;;;;;5053853;28;20197;-43
2021/03/02 01:54:14;;;;;;;1999.90;999.90;;;19.20;92.60;;;;;;5053837;28;20204;-42
2021/03/02 01:56:43;;;;;;;1999.90;999.90;;;19.10;92.70;;;;;;5053734;28;20183;-42
2021/03/02 01:59:11;;;;;;;1999.90;999.90;;;19.10;92.70;;;;;;5053480;28;20192;-42
2021/03/02 02:01:39;;;;;;;1999.90;999.90;;;19.20;92.60;;;;;;5053683;28;20165;-42
2021/03/02 02:04:13;;;;;;;1999.90;999.90;;;19.20;92.50;;;;;;5053773;28;20576;-42
2021/03/02 02:07:03;;;;;;;1999.90;999.90;;;19.20;92.50;;;;;;5053762;28;20148;-42
2021/03/02 02:09:54;;;;;;;1999.90;999.90;;;19.20;92.50;;;;;;5053516;28;20592;-42
2021/03/02 02:12:30;;;;;;;1999.90;999.90;;;19.20;92.40;;;;;;5053533;28;20154;-42
2021/03/02 02:15:11;;;;;;;1999.90;999.90;;;19.30;92.60;;;;;;5053443;28;20153;-41
2021/03/02 02:18:02;;;;;;;1999.90;999.90;;;19.40;92.20;;;;;;5053575;28;20161;-42
2021/03/02 02:20:47;;;;;;;1999.90;999.90;;;19.40;92.00;;;;;;5053466;28;20349;-41
2021/03/02 02:23:39;;;;;;;1999.90;999.90;;;19.40;91.70;;;;;;5053450;28;20171;-42
2021/03/02 02:26:30;;;;;;;1999.90;999.90;;;19.40;91.80;;;;;;5053366;28;20564;-41
2021/03/02 02:28:58;;;;;;;1999.90;999.90;;;19.40;91.80;;;;;;5053250;28;20196;-41
2021/03/02 02:31:27;;;;;;;1999.90;999.90;;;19.30;91.90;;;;;;5052930;28;20764;-42
2021/03/02 02:33:55;;;;;;;1999.90;999.90;;;19.30;91.90;;;;;;5053162;28;20211;-40
2021/03/02 02:36:23;;;;;;;1999.90;999.90;;;19.20;91.90;;;;;;5053077;28;20247;-41
2021/03/02 02:39:08;;;;;;;1999.90;999.90;;;19.10;91.90;;;;;;5053072;28;20169;-41
2021/03/02 02:41:35;;;;;;;1999.90;999.90;;;19.10;91.90;;;;;;5052970;28;20158;-41
2021/03/02 02:44:03;;;;;;;1999.90;999.90;;;19.10;91.90;;;;;;5053040;28;20256;-41
2021/03/02 02:46:31;;;;;;;1999.90;999.90;;;19.10;92.00;;;;;;5052963;28;20172;-43
2021/03/02 02:49:00;;;;;;;1999.90;999.90;;;19.00;92.00;;;;;;5052907;28;20201;-40
2021/03/02 02:51:28;;;;;;;1999.90;999.90;;;19.00;92.20;;;;;;5052879;28;20542;-40
2021/03/02 02:53:57;;;;;;;1999.90;999.90;;;18.90;92.30;;;;;;5052914;28;20177;-40
2021/03/02 02:56:24;;;;;;;1999.90;999.90;;;18.90;92.30;;;;;;5052839;28;20193;-40
2021/03/02 02:59:30;;;;;;;1999.90;999.90;;;18.90;92.30;;;;;;5052823;28;20204;-41
2021/03/02 03:02:07;;;;;;;1999.90;999.90;;;19.00;92.20;;;;;;5051504;28;20196;-41
2021/03/02 03:04:51;;;;;;;1999.90;999.90;;;18.90;92.00;;;;;;5052793;28;20168;-40
2021/03/02 03:07:33;;;;;;;1999.90;999.90;;;19.00;92.10;;;;;;5052745;28;20530;-40
2021/03/02 03:10:05;;;;;;;1999.90;999.90;;;19.00;91.90;;;;;;5052577;28;20209;-40
2021/03/02 03:12:34;;;;;;;1999.90;999.90;;;19.10;92.00;;;;;;5056458;28;20161;-40
2021/03/02 03:15:04;;;;;;;1999.90;999.90;;;19.00;92.20;;;;;;5056828;28;20195;-40
2021/03/02 03:17:41;;;;;;;1999.90;999.90;;;19.00;92.40;;;;;;5056770;28;20172;-40
2021/03/02 03:20:11;;;;;;;1999.90;999.90;;;19.00;92.50;;;;;;5056762;28;20318;-40
2021/03/02 03:22:39;;;;;;;1999.90;999.90;;;19.00;92.70;;;;;;5056690;28;20169;-43
2021/03/02 03:25:09;;;;;;;1999.90;999.90;;;18.90;92.80;;;;;;5056678;28;20169;-41
2021/03/02 03:27:42;;;;;;;1999.90;999.90;;;18.90;92.90;;;;;;5056617;28;20172;-42
2021/03/02 03:30:11;;;;;;;1999.90;999.90;;;18.90;93.00;;;;;;5056485;28;20204;-41
2021/03/02 03:32:44;;;;;;;1999.90;999.90;;;18.80;93.20;;;;;;5056341;28;20671;-41
2021/03/02 03:35:12;;;;;;;1999.90;999.90;;;18.80;93.20;;;;;;5056605;28;20153;-41
2021/03/02 03:37:39;;;;;;;1999.90;999.90;;;18.80;93.20;;;;;;5056467;28;20181;-41
2021/03/02 03:40:06;;;;;;;1999.90;999.90;;;18.80;93.00;;;;;;5056371;28;20170;-41
2021/03/02 03:42:33;;;;;;;1999.90;999.90;;;18.90;92.90;;;;;;5056187;28;20173;-41
2021/03/02 03:45:00;;;;;;;1999.90;999.90;;;18.90;92.60;;;;;;5056285;28;20169;-41
2021/03/02 03:47:28;;;;;;;1999.90;999.90;;;18.90;92.50;;;;;;5056134;28;20536;-42
2021/03/02 03:49:54;;;;;;;1999.90;999.90;;;18.90;92.70;;;;;;5056153;28;20538;-41
2021/03/02 03:52:22;;;;;;;1999.90;999.90;;;18.90;92.90;;;;;;5056119;28;20197;-41
2021/03/02 03:54:50;;;;;;;1999.90;999.90;;;18.90;93.00;;;;;;5056106;28;20169;-41
2021/03/02 03:57:19;;;;;;;1999.90;999.90;;;18.80;93.10;;;;;;5056053;28;20203;-41
2021/03/02 03:59:46;;;;;;;1999.90;999.90;;;18.80;93.20;;;;;;5056145;28;20176;-41
2021/03/02 04:02:14;;;;;;;1999.90;999.90;;;18.80;93.30;;;;;;5056061;28;20162;-41
2021/03/02 04:04:42;;;;;;;1999.90;999.90;;;18.70;93.30;;;;;;5055895;28;20184;-40
2021/03/02 04:07:09;;;;;;;1999.90;999.90;;;18.70;93.10;;;;;;5055880;28;20173;-43
2021/03/02 04:09:37;;;;;;;1999.90;999.90;;;18.70;93.20;;;;;;5055799;28;20193;-43
2021/03/02 04:12:04;;;;;;;1999.90;999.90;;;18.60;93.30;;;;;;5055689;28;20175;-42
2021/03/02 04:14:34;;;;;;;1999.90;999.90;;;18.50;93.50;;;;;;5055825;28;20169;-41
2021/03/02 04:17:02;;;;;;;1999.90;999.90;;;18.50;93.70;;;;;;5055650;28;20248;-41
2021/03/02 04:19:29;;;;;;;1999.90;999.90;;;18.50;93.90;;;;;;5055665;28;20180;-41
2021/03/02 04:21:55;;;;;;;1999.90;999.90;;;18.40;93.90;;;;;;5055292;28;20252;-45
2021/03/02 04:24:22;;;;;;;1999.90;999.90;;;18.40;94.60;;;;;;5055592;28;20530;-42
2021/03/02 04:26:49;;;;;;;1999.90;999.90;;;18.40;94.30;;;;;;5055527;28;20169;-42
2021/03/02 04:29:16;;;;;;;1999.90;999.90;;;18.40;94.20;;;;;;5055461;28;20279;-42
2021/03/02 04:31:43;;;;;;;1999.90;999.90;;;18.50;93.90;;;;;;5055135;28;20582;-43
2021/03/02 04:34:10;;;;;;;1999.90;999.90;;;18.60;93.90;;;;;;5055315;28;20568;-40
2021/03/02 04:36:36;;;;;;;1999.90;999.90;;;18.60;93.90;;;;;;5055266;28;20226;-40
2021/03/02 04:39:04;;;;;;;1999.90;999.90;;;18.50;94.00;;;;;;5055230;28;20286;-41
2021/03/02 04:41:31;;;;;;;1999.90;999.90;;;18.50;94.10;;;;;;5055143;28;20515;-43
2021/03/02 04:43:58;;;;;;;1999.90;999.90;;;18.50;94.20;;;;;;5055195;28;20169;-43
2021/03/02 04:46:25;;;;;;;1999.90;999.90;;;18.40;94.20;;;;;;5055307;28;20219;-42
2021/03/02 04:48:51;;;;;;;1999.90;999.90;;;18.40;94.30;;;;;;5055009;28;20172;-43
2021/03/02 04:51:18;;;;;;;1999.90;999.90;;;18.40;94.20;;;;;;5055155;28;20236;-43
2021/03/02 04:53:46;;;;;;;1999.90;999.90;;;18.40;94.10;;;;;;5054876;28;20165;-43
2021/03/02 04:56:12;;;;;;;1999.90;999.90;;;18.40;94.10;;;;;;5054869;28;20643;-46
2021/03/02 04:58:39;;;;;;;1999.90;999.90;;;18.40;94.00;;;;;;5055170;28;20554;-43
2021/03/02 05:01:06;;;;;;;1999.90;999.90;;;18.40;94.10;;;;;;5054866;28;20197;-43
2021/03/02 05:03:33;;;;;;;1999.90;999.90;;;18.40;94.00;;;;;;5054738;28;20166;-43
2021/03/02 05:06:00;;;;;;;1999.90;999.90;;;18.40;94.20;;;;;;5054641;28;20172;-43
2021/03/02 05:08:26;;;;;;;1999.90;999.90;;;18.40;94.00;;;;;;5054458;28;20185;-43
2021/03/02 05:10:53;;;;;;;1999.90;999.90;;;18.50;93.90;;;;;;5054531;28;20201;-44
2021/03/02 05:13:20;;;;;;;1999.90;999.90;;;18.40;93.90;;;;;;5054774;28;20187;-43
2021/03/02 05:15:47;;;;;;;1999.90;999.90;;;18.50;94.00;;;;;;5054445;28;20166;-41
2021/03/02 05:18:14;;;;;;;1999.90;999.90;;;18.50;93.80;;;;;;5054185;28;20530;-41
2021/03/02 05:20:41;;;;;;;1999.90;999.90;;;18.60;93.70;;;;;;5054129;28;20169;-41
2021/03/02 05:23:07;;;;;;;1999.90;999.90;;;18.60;93.60;;;;;;5052599;28;20275;-41
2021/03/02 05:25:34;;;;;;;1999.90;999.90;;;18.70;93.50;;;;;;5053971;28;20690;-42
2021/03/02 05:28:01;;;;;;;1999.90;999.90;;;18.80;93.40;;;;;;5053863;28;20162;-41
2021/03/02 05:30:28;;;;;;;1999.90;999.90;;;18.90;93.00;;;;;;5053860;28;20197;-41
2021/03/02 05:32:55;;;;;;;1999.90;999.90;;;18.90;93.00;;;;;;5053536;28;20213;-41
2021/03/02 05:35:21;;;;;;;1999.90;999.90;;;19.00;92.90;;;;;;5053409;28;20696;-43
2021/03/02 05:37:48;;;;;;;1999.90;999.90;;;19.00;92.90;;;;;;5053580;28;20157;-44
2021/03/02 05:40:15;;;;;;;1999.90;999.90;;;18.90;92.90;;;;;;5053296;28;20386;-41
2021/03/02 05:42:42;;;;;;;1999.90;999.90;;;18.90;93.00;;;;;;5053553;28;20165;-44
2021/03/02 05:45:10;;;;;;;1999.90;999.90;;;19.00;93.00;;;;;;5052898;28;20334;-42
2021/03/02 05:47:39;;;;;;;1999.90;999.90;;;19.10;92.80;;;;;;5053400;28;20165;-41
2021/03/02 05:50:07;;;;;;;1999.90;999.90;;;19.20;92.60;;;;;;5053257;28;20300;-41
2021/03/02 05:52:34;;;;;;;1999.90;999.90;;;19.30;92.40;;;;;;5053159;28;20168;-41
2021/03/02 05:55:02;;;;;;;1999.90;999.90;;;19.30;92.20;;;;;;5053248;28;20165;-42
2021/03/02 05:57:30;;;;;;;1999.90;999.90;;;19.40;92.10;;;;;;5053281;28;20165;-47
2021/03/02 05:59:58;;;;;;;1999.90;999.90;;;19.60;91.60;;;;;;5051831;28;20180;-44
2021/03/02 06:02:24;;;;;;;1999.90;999.90;;;19.70;91.20;;;;;;5053148;28;20222;-56
2021/03/02 06:04:51;;;;;;;1999.90;999.90;;;19.90;88.40;;;;;;5052002;28;20275;-54
2021/03/02 06:07:18;;;;;;;1999.90;999.90;;;20.30;89.00;;;;;;5053088;28;20592;-59
2021/03/02 06:09:45;;;;;;;1999.90;999.90;;;20.50;87.70;;;;;;5052529;28;20205;-60
2021/03/02 06:12:12;;;;;;;1999.90;999.90;;;20.70;87.20;;;;;;5050718;28;20256;-51
2021/03/02 06:14:39;;;;;;;1999.90;999.90;;;20.70;87.20;;;;;;5049778;28;20177;-51
2021/03/02 06:17:06;;;;;;;1999.90;999.90;;;20.80;86.80;;;;;;5048876;28;20612;-46
2021/03/02 06:19:47;;;;;;;1999.90;999.90;;;20.90;86.00;;;;;;5051472;28;20173;-48
2021/03/02 06:22:36;;;;;;;1999.90;999.90;;;21.00;85.60;;;;;;5052825;28;20165;-46
2021/03/02 06:25:25;;;;;;;1999.90;999.90;;;21.10;86.10;;;;;;5051010;28;20185;-57
2021/03/02 06:27:51;;;;;;;1999.90;999.90;;;21.10;85.00;;;;;;5052497;28;20204;-55
2021/03/02 06:30:19;;;;;;;1999.90;999.90;;;21.20;84.90;;;;;;5052100;28;20205;-54
2021/03/02 06:32:49;;;;;;;1999.90;999.90;;;21.30;84.50;;;;;;5050358;28;20217;-48
2021/03/02 06:35:32;;;;;;;1999.90;999.90;;;21.30;83.70;;;;;;5051271;28;20264;-47
2021/03/02 06:38:00;;;;;;;1999.90;999.90;;;21.50;83.70;;;;;;5043474;28;20184;-44
2021/03/02 06:40:43;;;;;;;1999.90;999.90;;;21.50;82.80;;;;;;5051780;28;20173;-50
2021/03/02 06:43:31;;;;;;;1999.90;999.90;;;21.40;83.40;;;;;;5052372;28;20176;-49
2021/03/02 06:46:03;;;;;;;1999.90;999.90;;;21.40;83.40;;;;;;5051140;28;20651;-44
2021/03/02 06:48:32;;;;;;;1999.90;999.90;;;21.60;82.90;;;;;;5048510;28;20263;-48
2021/03/02 06:51:00;;;;;;;1999.90;999.90;;;21.80;82.80;;;;;;5051615;28;20208;-52
2021/03/02 06:53:26;;;;;;;1999.90;999.90;;;22.00;81.70;;;;;;5051237;28;20209;-56
2021/03/02 06:55:53;;;;;;;1999.90;999.90;;;22.00;81.00;;;;;;5051787;28;20169;-52
2021/03/02 06:58:23;;;;;;;1999.90;999.90;;;22.10;79.90;;;;;;5051685;28;20176;-57
2021/03/02 07:00:54;;;;;;;1999.90;999.90;;;22.20;79.50;;;;;;5051661;28;20234;-49
2021/03/02 07:03:24;;;;;;;1999.90;999.90;;;22.10;79.10;;;;;;5050188;28;20526;-52
2021/03/02 07:05:52;;;;;;;1999.90;999.90;;;22.20;79.60;;;;;;5050855;28;20177;-52
2021/03/02 07:08:19;;;;;;;1999.90;999.90;;;22.30;78.90;;;;;;5051678;28;20204;-58
2021/03/02 07:10:50;;;;;;;1999.90;999.90;;;22.30;78.40;;;;;;5052077;28;20296;-54
2021/03/02 07:13:18;;;;;;;1999.90;999.90;;;22.50;77.20;;;;;;5054577;28;20170;-54
2021/03/02 07:15:46;;;;;;;1999.90;999.90;;;22.60;76.80;;;;;;5050966;28;20659;-56
2021/03/02 07:18:18;;;;;;;1999.90;999.90;;;22.60;77.30;;;;;;5052252;28;20510;-55
2021/03/02 07:20:48;;;;;;;1999.90;999.90;;;22.70;76.90;;;;;;5052224;28;20154;-55
2021/03/02 07:23:23;;;;;;;1999.90;999.90;;;23.00;75.70;;;;;;5051892;28;20177;-55
2021/03/02 07:25:51;;;;;;;1999.90;999.90;;;23.10;75.30;;;;;;5052201;28;20204;-56
2021/03/02 07:28:21;;;;;;;1999.90;999.90;;;23.30;74.40;;;;;;5052112;28;20176;-55
2021/03/02 07:30:48;;;;;;;1999.90;999.90;;;23.40;73.30;;;;;;5051260;28;20271;-55
2021/03/02 07:33:16;;;;;;;1999.90;999.90;;;23.50;73.00;;;;;;5052011;28;20195;-58
2021/03/02 07:35:43;;;;;;;1999.90;999.90;;;23.60;72.20;;;;;;5051665;28;20737;-50
2021/03/02 07:38:20;;;;;;;1999.90;999.90;;;23.70;72.30;;;;;;5051598;28;20173;-49
2021/03/02 07:40:49;;;;;;;1999.90;999.90;;;23.80;71.20;;;;;;5050788;28;20165;-53
2021/03/02 07:43:24;;;;;;;1999.90;999.90;;;23.60;71.40;;;;;;5050201;28;20173;-58
2021/03/02 07:45:53;;;;;;;1999.90;999.90;;;23.80;70.70;;;;;;5050514;28;20180;-56
2021/03/02 07:48:36;;;;;;;1999.90;999.90;;;23.90;70.60;;;;;;5050796;28;20211;-58
2021/03/02 07:51:16;;;;;;;1999.90;999.90;;;24.10;69.00;;;;;;5051490;28;20671;-59
2021/03/02 07:53:44;;;;;;;1999.90;999.90;;;24.20;68.10;;;;;;5031922;28;20184;-61
2021/03/02 07:56:19;;;;;;;1999.90;999.90;;;24.50;68.10;;;;;;5044540;28;20181;-51
2021/03/02 07:59:05;;;;;;;1999.90;999.90;;;24.70;66.80;;;;;;5053711;28;20258;-54
2021/03/02 08:01:32;;;;;;;1999.90;999.90;;;24.80;67.80;;;;;;5053911;28;20203;-55
2021/03/02 08:04:14;;;;;;;1999.90;999.90;;;25.00;64.10;;;;;;5053656;28;20181;-46
2021/03/02 08:06:53;;;;;;;1999.90;999.90;;;25.20;63.80;;;;;;5053560;28;20660;-50
2021/03/02 08:09:26;;;;;;;1999.90;999.90;;;25.50;63.30;;;;;;5054043;28;20551;-48
2021/03/02 08:12:25;;;;;;;1999.90;999.90;;;25.80;61.70;;;;;;5054715;28;20212;-48
2021/03/02 08:14:52;;;;;;;1999.90;999.90;;;26.10;60.40;;;;;;5055170;28;20642;-47
2021/03/02 08:17:20;;;;;;;1999.90;999.90;;;26.40;57.70;;;;;;5053931;28;20597;-47
2021/03/02 08:20:00;;;;;;;1999.90;999.90;;;26.60;57.30;;;;;;5055256;28;20530;-47
2021/03/02 08:22:30;;;;;;;1999.90;999.90;;;27.10;56.50;;;;;;5054894;28;20161;-52
2021/03/02 08:25:05;;;;;;;1999.90;999.90;;;27.50;54.90;;;;;;5054702;28;20531;-52
2021/03/02 08:27:46;;;;;;;1999.90;999.90;;;28.10;53.40;;;;;;5054677;28;20172;-48
2021/03/02 08:30:25;;;;;;;1999.90;999.90;;;28.50;52.20;;;;;;5054888;28;20213;-47
2021/03/02 08:32:53;;;;;;;1999.90;999.90;;;28.70;51.00;;;;;;5054900;28;20586;-56
2021/03/02 08:35:31;;;;;;;1999.90;999.90;;;29.00;51.00;;;;;;5055047;28;20307;-57
2021/03/02 08:38:11;;;;;;;1999.90;999.90;;;29.40;49.30;;;;;;5053010;28;20176;-45
2021/03/02 08:40:38;;;;;;;1999.90;999.90;;;29.70;47.70;;;;;;5054760;28;20201;-49
2021/03/02 08:43:35;;;;;;;1999.90;999.90;;;29.80;47.60;;;;;;5054776;28;20169;-61
2021/03/02 08:46:02;;;;;;;1999.90;999.90;;;29.90;47.80;;;;;;5054689;28;20153;-47
2021/03/02 08:48:33;;;;;;;1999.90;999.90;;;30.30;46.70;;;;;;5054187;28;20169;-52
2021/03/02 08:51:05;;;;;;;1999.90;999.90;;;30.40;46.70;;;;;;5054424;28;20722;-52
2021/03/02 08:53:49;;;;;;;1999.90;999.90;;;30.60;45.90;;;;;;5054736;28;20275;-51
2021/03/02 08:56:19;;;;;;;1999.90;999.90;;;30.50;45.70;;;;;;5054137;28;20222;-54
2021/03/02 08:58:48;;;;;;;1999.90;999.90;;;30.70;45.90;;;;;;5053964;28;20180;-53
2021/03/02 09:01:27;;;;;;;1999.90;999.90;;;30.80;44.90;;;;;;5054363;28;20169;-58
2021/03/02 09:04:12;;;;;;;1999.90;999.90;;;30.70;45.40;;;;;;5054336;28;20173;-49
2021/03/02 09:06:41;;;;;;;1999.90;999.90;;;30.90;45.00;;;;;;5054219;28;20219;-54
2021/03/02 09:09:14;;;;;;;1999.90;999.90;;;30.80;45.10;;;;;;5052640;28;20185;-51
2021/03/02 09:11:49;;;;;;;1999.90;999.90;;;31.60;43.70;;;;;;5054256;28;20269;-48
2021/03/02 09:14:36;;;;;;;1999.90;999.90;;;31.70;43.00;;;;;;5054779;28;20172;-47
2021/03/02 09:17:07;;;;;;;1999.90;999.90;;;31.90;42.80;;;;;;5053980;28;20187;-59
2021/03/02 09:19:37;;;;;;;1999.90;999.90;;;31.70;42.60;;;;;;5053790;28;20173;-53
2021/03/02 09:22:05;;;;;;;1999.90;999.90;;;31.60;42.80;;;;;;5053884;28;20246;-46
2021/03/02 09:24:36;;;;;;;1999.90;999.90;;;32.30;42.30;;;;;;5054193;28;20157;-47
2021/03/02 09:27:29;;;;;;;1999.90;999.90;;;31.80;42.30;;;;;;5053733;28;20176;-52
2021/03/02 09:29:57;;;;;;;1999.90;999.90;;;32.20;42.00;;;;;;5054047;28;20204;-42
2021/03/02 09:32:27;;;;;;;1999.90;999.90;;;31.50;42.40;;;;;;5053166;28;20216;-43
2021/03/02 09:35:07;;;;;;;1999.90;999.90;;;30.90;43.90;;;;;;5053408;28;20173;-43
2021/03/02 09:37:37;;;;;;;1999.90;999.90;;;30.90;44.10;;;;;;5053297;28;20203;-43
2021/03/02 09:40:09;;;;;;;1999.90;999.90;;;31.50;43.30;;;;;;5053887;28;20165;-45
2021/03/02 09:42:40;;;;;;;1999.90;999.90;;;31.50;42.50;;;;;;5053771;28;20711;-45
2021/03/02 09:45:17;;;;;;;1999.90;999.90;;;31.40;43.10;;;;;;5053588;28;20173;-46
2021/03/02 09:47:46;;;;;;;1999.90;999.90;;;31.40;42.90;;;;;;5053250;28;20216;-46
2021/03/02 09:50:18;;;;;;;1999.90;999.90;;;31.10;43.60;;;;;;5053625;28;20207;-46
2021/03/02 09:52:49;;;;;;;1999.90;999.90;;;31.30;43.60;;;;;;5052968;28;20173;-46
2021/03/02 09:55:19;;;;;;;1999.90;999.90;;;31.50;43.50;;;;;;5053284;28;20150;-50
2021/03/02 09:58:12;;;;;;;1999.90;999.90;;;31.70;42.70;;;;;;5052829;28;20173;-47
2021/03/02 10:00:48;;;;;;;1999.90;999.90;;;31.80;42.80;;;;;;5050565;28;20169;-46
2021/03/02 10:03:43;;;;;;;1999.90;999.90;;;31.80;42.50;;;;;;5052271;28;20169;-51
2021/03/02 10:06:10;;;;;;;1999.90;999.90;;;32.20;42.10;;;;;;5052430;28;20612;-53
2021/03/02 10:08:41;;;;;;;1999.90;999.90;;;32.30;42.10;;;;;;5051777;28;20577;-44
2021/03/02 10:11:14;;;;;;;1999.90;999.90;;;32.30;41.90;;;;;;5052878;28;20243;-45
2021/03/02 10:13:48;;;;;;;1999.90;999.90;;;32.20;42.50;;;;;;5052539;28;20177;-51
2021/03/02 10:16:35;;;;;;;1999.90;999.90;;;32.00;42.30;;;;;;5051888;28;20176;-45
2021/03/02 10:19:06;;;;;;;1999.90;999.90;;;32.00;42.00;;;;;;5044577;28;20219;-45
2021/03/02 10:21:45;;;;;;;1999.90;999.90;;;31.90;42.10;;;;;;5052155;28;20247;-45
2021/03/02 10:24:24;;;;;;;1999.90;999.90;;;31.80;42.60;;;;;;5042233;28;20208;-47
2021/03/02 10:26:53;;;;;;;1999.90;999.90;;;32.00;42.60;;;;;;5052629;28;20527;-45
2021/03/02 10:29:20;;;;;;;1999.90;999.90;;;32.00;42.30;;;;;;5052449;28;20552;-45
2021/03/02 10:31:49;;;;;;;1999.90;999.90;;;32.20;42.10;;;;;;5052293;28;20210;-43
2021/03/02 10:34:17;;;;;;;1999.90;999.90;;;32.30;41.50;;;;;;5052326;28;20184;-57
2021/03/02 10:36:45;;;;;;;1999.90;999.90;;;32.10;42.30;;;;;;5052826;28;20659;-46
2021/03/02 10:39:16;;;;;;;1999.90;999.90;;;32.40;41.50;;;;;;5052410;28;20181;-46
2021/03/02 10:41:46;;;;;;;1999.90;999.90;;;32.60;41.60;;;;;;5052070;28;20263;-43
2021/03/02 10:44:13;;;;;;;1999.90;999.90;;;32.90;40.40;;;;;;5051574;28;20687;-42
2021/03/02 10:46:41;;;;;;;1999.90;999.90;;;32.40;40.60;;;;;;5051949;28;20200;-43
2021/03/02 10:49:08;;;;;;;1999.90;999.90;;;32.40;40.80;;;;;;5052352;28;20201;-48
2021/03/02 10:51:35;;;;;;;1999.90;999.90;;;32.80;39.90;;;;;;5052618;28;20170;-47
2021/03/02 10:54:02;;;;;;;1999.90;999.90;;;32.90;39.90;;;;;;5051291;28;20535;-52
2021/03/02 10:56:28;;;;;;;1999.90;999.90;;;33.00;39.40;;;;;;5052293;28;20283;-44
2021/03/02 10:58:55;;;;;;;1999.90;999.90;;;32.70;39.40;;;;;;5052071;28;20177;-46
2021/03/02 11:01:23;;;;;;;1999.90;999.90;;;32.90;40.00;;;;;;5052294;28;20538;-44
2021/03/02 11:03:50;;;;;;;1999.90;999.90;;;33.10;39.80;;;;;;5052320;28;20697;-48
2021/03/02 11:06:19;;;;;;;1999.90;999.90;;;33.30;39.00;;;;;;5052178;28;20184;-51
2021/03/02 11:08:48;;;;;;;1999.90;999.90;;;33.30;38.70;;;;;;5051503;28;20173;-44
2021/03/02 11:11:16;;;;;;;1999.90;999.90;;;33.30;38.80;;;;;;5051710;28;20656;-55
2021/03/02 11:13:43;;;;;;;1999.90;999.90;;;33.40;37.90;;;;;;5052256;28;20256;-46
2021/03/02 11:16:10;;;;;;;1999.90;999.90;;;33.40;38.30;;;;;;5052159;28;20181;-50
2021/03/02 11:18:38;;;;;;;1999.90;999.90;;;33.00;38.80;;;;;;5052437;28;20759;-56
2021/03/02 11:21:06;;;;;;;1999.90;999.90;;;33.10;39.00;;;;;;5051888;28;20185;-56
2021/03/02 11:23:33;;;;;;;1999.90;999.90;;;33.10;38.80;;;;;;5052355;28;20192;-58
2021/03/02 11:26:00;;;;;;;1999.90;999.90;;;33.20;38.90;;;;;;5052377;28;20173;-45
2021/03/02 11:28:27;;;;;;;1999.90;999.90;;;33.20;39.10;;;;;;5052199;28;20620;-42
2021/03/02 11:30:53;;;;;;;1999.90;999.90;;;33.10;38.60;;;;;;5051677;28;20213;-49
2021/03/02 11:33:20;;;;;;;1999.90;999.90;;;33.70;37.70;;;;;;5055644;28;20207;-51
2021/03/02 11:35:47;;;;;;;1999.90;999.90;;;33.90;37.50;;;;;;5055942;28;20169;-58
2021/03/02 11:38:14;;;;;;;1999.90;999.90;;;34.00;37.10;;;;;;5056111;28;20165;-45
2021/03/02 11:40:42;;;;;;;1999.90;999.90;;;34.10;37.10;;;;;;5055655;28;20176;-49
2021/03/02 11:43:09;;;;;;;1999.90;999.90;;;34.20;36.30;;;;;;5035921;28;20231;-48
2021/03/02 11:45:37;;;;;;;1999.90;999.90;;;33.90;37.00;;;;;;5049214;28;20173;-46
2021/03/02 11:48:05;;;;;;;1999.90;999.90;;;33.80;36.90;;;;;;5055782;28;20207;-47
2021/03/02 11:50:32;;;;;;;1999.90;999.90;;;34.00;37.00;;;;;;5056031;28;20209;-53
2021/03/02 11:52:59;;;;;;;1999.90;999.90;;;33.90;37.20;;;;;;5055558;28;20180;-57
2021/03/02 11:55:26;;;;;;;1999.90;999.90;;;34.10;36.90;;;;;;5055659;28;20697;-50
2021/03/02 11:57:53;;;;;;;1999.90;999.90;;;34.30;36.50;;;;;;5055166;28;20185;-58
2021/03/02 12:00:24;;;;;;;1999.90;999.90;;;34.40;35.80;;;;;;5055121;28;20769;-56
2021/03/02 12:02:51;;;;;;;1999.90;999.90;;;33.70;37.10;;;;;;5055228;28;20174;-48
2021/03/02 12:05:20;;;;;;;1999.90;999.90;;;33.90;36.30;;;;;;5055365;28;20185;-44
2021/03/02 12:07:49;;;;;;;1999.90;999.90;;;34.00;36.20;;;;;;5051647;28;20278;-60
2021/03/02 12:10:17;;;;;;;1999.90;999.90;;;34.10;35.90;;;;;;5055661;28;20236;-43
2021/03/02 12:12:45;;;;;;;1999.90;999.90;;;34.50;35.60;;;;;;5055251;28;20535;-48
2021/03/02 12:15:13;;;;;;;1999.90;999.90;;;34.50;35.00;;;;;;5055387;28;20256;-56